Hickory Flat, Mississippi
Current Conditions -  °F | °C
As of 1:35 AM on Sunday 23 Nov 2014 (Local Time) from KUOX Reporting Station
Overcast Overcast  
Wind Chill: 57°   Ceiling: 1600
Heat Index: 57°   Visibility: 10mi
Dew Point: 52°   Wind: 9mph
Humidity: 82%   Direction: 130°SE
Pressure: 29.9"   Gusts: NA
Location:  34.62°N, 89.19°W
Report Text: KUOX 230735Z AUTO 13008KT 010V020 10SM OVC016 14/11 A2990 RMK AO2 PWINO PNO
Loading
Personal Weather Stations






























Interactive Weather Map New forecast layout! Learn more

10-Day Weather Forecast

Advertisements
Track Severe Weather on mobile